Главная страница
METAR-TAF:

METAR-TAF

Аэропорты :

Pottstown Limerick Airport

Pottstown, Пенсильвания, США

широта: 40-14-18N, долгота: 075-33-26W, высота над уровнем моря: 89 м

Текущие метеонаблюдения

Эта сводка был подготовлена 1 час и 3 минут назад, в 11:54 UTC
Штиль
Температура -1°C
Влажность 100%
Давление 1029 hPa
Видимость: 11.3 км
Рассеянная облачность на высоте 5000 фута
Сплошная облачность на высоте 10000 фута

METAR: KPTW 181154Z AUTO 00000KT 7SM BKN050 OVC100 M01/M01 A3038 RMK AO2 SLP286 T10061011 10011 21017 53011

Время: 07:57 (12:57 UTC)


TAF: отсутствует

Метеонаблюдения и прогнозы для более 4000 аэропортов (сводки METAR и TAF).

Имеющиеся станции представлены на карте желтыми и красными точками.

Чтобы увидеть название станции, наведите на нее мышь.

Затем щелкните, чтобы увидеть метеонаблюдения и метеопрогнозы.

Управление картой: чтобы увеличить масштаб, щелкните зеленые кнопки с черным крестиком; чтобы уменьшить масштаб, щелкните зеленую кнопку с тире; для просмотра соседних карт щелкайте зеленые стрелки.


METAR-TAF: